Chat, Texas
Current Conditions -  °F | °C
As of 11:35 AM on Saturday 22 Nov 2014 (Local Time) from KINJ Reporting Station
Haze Haze  
Wind Chill: 62°   Ceiling: 500
Heat Index: 62°   Visibility: 4mi
Dew Point: 59°   Wind: 15mph
Humidity: 91%   Direction: 130°SE
Pressure: 29.98"   Gusts: 20mph
Location:  32.0499°N, 97.1039°W
Report Text: KINJ 221735Z AUTO 13013G17KT 4SM BR OVC005 17/15 A2998 RMK AO2 LTG DSNT SW AND W T01650151
Loading
Personal Weather Stations






























Interactive Weather Map New forecast layout! Learn more

10-Day Weather Forecast

Advertisements
Track Severe Weather on mobile